Time;durP1;ratioP1;P1;durP2;ratioP2;P2;SDS_P1;SDS_P2;PMS_P1;PMS_P2;Temp;Humidity;BMP_temperature;BMP_pressure;BME280_temperature;BME280_humidity;BME280_pressure;Samples;Min_cycle;Max_cycle;Signal;HPM_P1;HPM_P2
2022/08/10 00:01:36;;;;;;;2.53;1.00;;;;;;;20.28;48.58;99298.47;4485768;32;20152;-72
2022/08/10 00:04:04;;;;;;;3.67;1.60;;;;;;;20.23;48.87;99293.72;4485290;31;20088;-72
2022/08/10 00:06:31;;;;;;;3.85;1.40;;;;;;;20.21;48.96;99296.56;4485226;31;20080;-72
2022/08/10 00:08:58;;;;;;;2.37;1.20;;;;;;;20.17;49.00;99289.94;4485479;31;20157;-72
2022/08/10 00:11:26;;;;;;;1.75;1.30;;;;;;;20.17;49.25;99292.59;4485366;31;20454;-72
2022/08/10 00:13:53;;;;;;;2.53;1.67;;;;;;;20.10;49.36;99288.22;4484296;32;20093;-72
2022/08/10 00:16:20;;;;;;;2.70;1.23;;;;;;;20.06;49.58;99281.62;4485623;31;20636;-72
2022/08/10 00:18:48;;;;;;;2.15;1.27;;;;;;;20.11;49.51;99284.56;4485387;32;20157;-72
2022/08/10 00:21:15;;;;;;;2.42;1.40;;;;;;;20.06;49.57;99279.81;4485295;31;20115;-72
2022/08/10 00:23:42;;;;;;;2.72;1.25;;;;;;;20.09;49.75;99286.56;4485232;31;20088;-72
2022/08/10 00:26:09;;;;;;;1.48;1.12;;;;;;;20.05;49.87;99283.47;4485395;31;20104;-72
2022/08/10 00:28:37;;;;;;;3.95;1.20;;;;;;;20.02;49.95;99292.63;4485247;31;20096;-72
2022/08/10 00:31:05;;;;;;;1.40;1.12;;;;;;;19.96;50.02;99290.72;4485080;31;20088;-72
2022/08/10 00:33:32;;;;;;;1.65;1.40;;;;;;;19.92;50.10;99294.75;4484873;32;20096;-72
2022/08/10 00:35:59;;;;;;;3.17;1.33;;;;;;;19.87;50.13;99291.81;4485244;31;20115;-72
2022/08/10 00:38:27;;;;;;;3.95;1.20;;;;;;;19.88;50.21;99290.81;4485059;31;20134;-72
2022/08/10 00:40:54;;;;;;;5.22;1.60;;;;;;;19.84;50.38;99289.53;4485378;31;20096;-72
2022/08/10 00:43:21;;;;;;;2.90;1.10;;;;;;;19.80;50.46;99286.44;4485078;31;20532;-72
2022/08/10 00:45:51;;;;;;;6.10;1.12;;;;;;;19.79;50.63;99290.09;4485135;31;20092;-72
2022/08/10 00:48:28;;;;;;;1.90;1.20;;;;;;;19.72;50.98;99285.66;4485203;31;20089;-72
2022/08/10 00:50:57;;;;;;;3.25;1.30;;;;;;;19.75;51.21;99286.09;4485242;31;20165;-72
2022/08/10 00:53:26;;;;;;;3.92;1.30;;;;;;;19.74;51.02;99289.75;4484980;31;20088;-72
2022/08/10 00:55:55;;;;;;;2.67;1.50;;;;;;;19.73;51.16;99288.12;4483823;32;20149;-72
2022/08/10 00:58:42;;;;;;;3.42;1.40;;;;;;;19.73;51.22;99289.94;4485111;31;20096;-72
2022/08/10 01:01:10;;;;;;;1.75;1.10;;;;;;;19.69;51.51;99292.97;4485097;32;20160;-72
2022/08/10 01:03:57;;;;;;;3.58;1.25;;;;;;;19.67;51.60;99279.06;4483702;32;20610;-72
2022/08/10 01:07:08;;;;;;;4.10;1.30;;;;;;;19.67;51.65;99288.88;4484973;31;20557;-73
2022/08/10 01:09:58;;;;;;;1.98;1.42;;;;;;;19.59;52.01;99289.78;4485193;31;20135;-72
2022/08/10 01:12:34;;;;;;;4.28;1.35;;;;;;;19.53;52.20;99290.53;4483612;32;20152;-72
2022/08/10 01:15:35;;;;;;;5.22;1.75;;;;;;;19.45;52.44;99291.41;4484976;32;20080;-72
2022/08/10 01:18:12;;;;;;;1.65;1.30;;;;;;;19.45;52.53;99294.06;4481728;32;20707;-72
2022/08/10 01:21:16;;;;;;;2.03;1.10;;;;;;;19.44;52.66;99284.47;4484881;31;20092;-72
2022/08/10 01:23:43;;;;;;;;;;;;;;;19.47;52.63;99284.09;4485109;31;20092;-72
2022/08/10 01:26:40;;;;;;;5.07;1.40;;;;;;;19.48;52.63;99285.72;4484710;32;19976;-72
2022/08/10 01:29:55;;;;;;;4.78;1.83;;;;;;;19.49;52.75;99292.69;4485130;31;20491;-72
2022/08/10 01:32:53;;;;;;;2.08;1.45;;;;;;;19.41;52.92;99290.13;4470782;32;20097;-72
2022/08/10 01:35:35;;;;;;;2.87;1.42;;;;;;;19.41;53.04;99291.94;4478349;32;20509;-72
2022/08/10 01:38:10;;;;;;;2.78;1.30;;;;;;;19.26;53.54;99297.25;4483287;32;20560;-72
2022/08/10 01:40:41;;;;;;;5.25;1.37;;;;;;;19.20;53.69;99296.16;4485083;31;20164;-72
2022/08/10 01:43:12;;;;;;;6.83;1.93;;;;;;;19.24;53.60;99297.44;4482928;32;20505;-72
2022/08/10 01:45:45;;;;;;;3.60;1.62;;;;;;;19.19;53.89;99289.19;4483465;32;20130;-72
2022/08/10 01:48:27;;;;;;;2.05;1.45;;;;;;;19.13;54.10;99298.69;4484616;31;20532;-72
2022/08/10 01:51:25;;;;;;;6.87;1.67;;;;;;;19.11;54.36;99291.91;4483268;32;20175;-72
2022/08/10 01:53:59;;;;;;;4.68;2.00;;;;;;;19.12;54.37;99301.50;4407279;32;20132;-72
2022/08/10 01:56:29;;;;;;;1.73;1.30;;;;;;;19.09;54.73;99294.75;4407340;32;20097;-72
2022/08/10 01:58:58;;;;;;;3.12;1.35;;;;;;;19.08;54.71;99294.94;4419840;32;20597;-72
2022/08/10 02:01:28;;;;;;;2.12;1.50;;;;;;;19.07;54.84;99299.41;4419832;32;20098;-72
2022/08/10 02:04:01;;;;;;;2.28;1.50;;;;;;;19.09;54.92;99301.88;4419645;32;20125;-72
2022/08/10 02:06:36;;;;;;;1.62;1.30;;;;;;;19.11;55.19;99298.03;4419440;32;20689;-72
2022/08/10 02:09:05;;;;;;;2.95;1.27;;;;;;;19.06;55.22;99297.78;4407005;32;20128;-72
2022/08/10 02:11:36;;;;;;;6.65;1.80;;;;;;;19.02;55.44;99298.31;4407139;32;20098;-72
2022/08/10 02:14:28;;;;;;;2.50;1.48;;;;;;;19.07;55.18;99296.75;4419638;32;20118;-72
2022/08/10 02:17:04;;;;;;;1.85;1.37;;;;;;;19.03;55.45;99297.28;4407343;32;20444;-72
2022/08/10 02:19:32;;;;;;;2.30;1.35;;;;;;;19.07;55.51;99291.44;4419530;32;20116;-72
2022/08/10 02:22:00;;;;;;;2.75;1.62;;;;;;;19.10;55.50;99295.56;4406898;32;20121;-72
2022/08/10 02:24:48;;;;;;;3.55;1.42;;;;;;;19.14;55.53;99294.22;4409096;32;20113;-72
2022/08/10 02:27:17;;;;;;;1.92;1.60;;;;;;;18.99;55.84;99298.66;4406752;32;20144;-72
2022/08/10 02:29:45;;;;;;;4.57;1.40;;;;;;;18.97;55.92;99291.69;4408138;32;20156;-72
2022/08/10 02:32:16;;;;;;;2.67;1.37;;;;;;;18.96;56.00;99292.69;4484021;31;20132;-72
2022/08/10 02:35:06;;;;;;;2.50;1.62;;;;;;;18.92;56.31;99296.69;4482562;32;20104;-72
2022/08/10 02:37:36;;;;;;;4.25;1.42;;;;;;;18.87;56.36;99292.94;4483745;31;20096;-72
2022/08/10 02:40:04;;;;;;;2.05;1.70;;;;;;;18.89;56.45;99304.19;4482556;32;20118;-72
2022/08/10 02:42:53;;;;;;;1.52;1.30;;;;;;;18.87;56.64;99300.91;4482404;32;20154;-72
2022/08/10 02:45:43;;;;;;;1.98;1.52;;;;;;;18.91;56.61;99310.16;4483553;32;20112;-72
2022/08/10 02:48:17;;;;;;;2.72;1.23;;;;;;;19.11;55.94;99313.97;4482488;32;20096;-72
2022/08/10 02:50:49;;;;;;;3.17;1.65;;;;;;;19.29;55.54;99312.84;4482614;32;20496;-72
2022/08/10 02:53:22;;;;;;;2.15;1.42;;;;;;;19.14;55.95;99310.16;4483817;31;20064;-72
2022/08/10 02:56:20;;;;;;;3.67;1.58;;;;;;;19.16;55.98;99316.09;4486081;31;20096;-72
2022/08/10 02:59:09;;;;;;;6.32;1.60;;;;;;;19.11;56.30;99321.13;4486091;31;20092;-72
2022/08/10 03:01:42;;;;;;;3.20;1.30;;;;;;;19.07;56.37;99325.13;4484843;32;20088;-72
2022/08/10 03:04:20;;;;;;;2.78;1.35;;;;;;;19.03;56.51;99323.84;4484299;32;20076;-72
2022/08/10 03:07:10;;;;;;;3.90;1.62;;;;;;;19.00;56.60;99324.19;4470916;32;20124;-72
2022/08/10 03:09:39;;;;;;;2.08;1.50;;;;;;;19.02;56.63;99323.03;4468758;32;20101;-72
2022/08/10 03:12:08;;;;;;;2.33;1.33;;;;;;;19.02;56.72;99323.03;4468816;32;20115;-72
2022/08/10 03:14:56;;;;;;;4.20;1.52;;;;;;;19.01;56.74;99329.31;4469228;32;20115;-72
2022/08/10 03:17:23;;;;;;;4.55;1.90;;;;;;;18.94;56.89;99337.19;4470059;32;20162;-72
2022/08/10 03:19:50;;;;;;;2.55;1.55;;;;;;;18.93;57.11;99340.03;4470096;32;20097;-72
2022/08/10 03:22:39;;;;;;;7.53;1.77;;;;;;;18.96;57.04;99335.16;4469127;32;20115;-72
2022/08/10 03:25:08;;;;;;;2.00;1.58;;;;;;;18.92;57.11;99341.81;4469139;32;20143;-72
2022/08/10 03:27:36;;;;;;;1.92;1.37;;;;;;;18.77;57.47;99346.22;4470038;32;20120;-72
2022/08/10 03:30:04;;;;;;;2.75;1.65;;;;;;;18.70;57.84;99351.41;4468719;32;20121;-72
2022/08/10 03:32:52;;;;;;;3.87;1.48;;;;;;;18.68;57.88;99347.28;4470002;32;20081;-72
2022/08/10 03:35:20;;;;;;;4.72;1.48;;;;;;;18.70;57.97;99350.56;4468337;32;20085;-72
2022/08/10 03:37:47;;;;;;;1.87;1.73;;;;;;;18.68;58.08;99353.41;4480843;32;20092;-72
2022/08/10 03:40:22;;;;;;;5.57;1.80;;;;;;;18.73;57.99;99352.91;4484387;32;20547;-72
2022/08/10 03:43:10;;;;;;;2.05;1.50;;;;;;;18.65;58.29;99347.63;4485793;31;20527;-72
2022/08/10 03:45:38;;;;;;;5.50;1.80;;;;;;;18.65;58.32;99350.28;4484252;32;20115;-72
2022/08/10 03:48:26;;;;;;;3.28;1.62;;;;;;;18.60;58.43;99350.81;4484862;32;20100;-72
2022/08/10 03:51:14;;;;;;;2.65;1.70;;;;;;;18.53;58.67;99356.00;4485659;31;20088;-72
2022/08/10 03:53:41;;;;;;;2.33;1.60;;;;;;;18.58;58.58;99358.13;4484275;32;20685;-72
2022/08/10 03:56:29;;;;;;;3.75;2.05;;;;;;;18.65;58.35;99358.25;4485630;31;20077;-72
2022/08/10 03:58:58;;;;;;;2.08;1.48;;;;;;;18.65;58.41;99356.41;4485477;31;20603;-72
2022/08/10 04:01:26;;;;;;;2.83;1.73;;;;;;;18.63;58.35;99355.78;4485463;31;20160;-72
2022/08/10 04:04:14;;;;;;;4.62;1.65;;;;;;;18.68;58.17;99353.41;4485200;31;20445;-72
2022/08/10 04:06:51;;;;;;;2.20;1.62;;;;;;;18.76;58.01;99355.22;4471688;32;20572;-72
2022/08/10 04:09:29;;;;;;;2.97;1.55;;;;;;;18.83;57.68;99364.09;4468802;32;20265;-72
2022/08/10 04:12:16;;;;;;;8.10;1.80;;;;;;;18.79;57.81;99368.13;4469769;32;20476;-72
2022/08/10 04:14:45;;;;;;;2.22;1.33;;;;;;;18.89;57.37;99366.06;4470046;32;20520;-72
2022/08/10 04:17:21;;;;;;;;;;;;;;;18.94;56.78;99355.78;4469904;32;20094;-72
2022/08/10 04:20:18;;;;;;;2.28;1.60;;;;;;;19.00;56.90;99361.37;4469871;32;20022;-72
2022/08/10 04:22:51;;;;;;;1.58;1.20;;;;;;;19.05;56.61;99367.81;4469886;32;20089;-72
2022/08/10 04:25:20;;;;;;;4.45;1.92;;;;;;;19.18;56.16;99359.22;4468411;32;20088;-72
2022/08/10 04:27:47;;;;;;;2.25;1.75;;;;;;;19.16;55.92;99366.56;4469664;32;20138;-72
2022/08/10 04:30:14;;;;;;;3.70;1.67;;;;;;;19.29;55.64;99365.97;4468403;32;20100;-72
2022/08/10 04:32:42;;;;;;;3.95;1.42;;;;;;;19.38;55.54;99369.37;4469753;32;20555;-72
2022/08/10 04:35:10;;;;;;;5.32;1.58;;;;;;;19.46;54.74;99372.78;4469123;32;20154;-72
2022/08/10 04:37:39;;;;;;;3.30;1.42;;;;;;;19.54;54.95;99371.88;4478005;32;20088;-72
2022/08/10 04:40:18;;;;;;;4.20;1.55;;;;;;;19.56;54.47;99372.53;4483886;32;20096;-72
2022/08/10 04:43:00;;;;;;;4.30;1.37;;;;;;;19.62;54.21;99370.97;4485217;31;20096;-72
2022/08/10 04:45:39;;;;;;;2.42;1.37;;;;;;;19.78;53.54;99365.53;4485246;31;20159;-72
2022/08/10 04:48:19;;;;;;;3.42;1.40;;;;;;;19.83;53.56;99378.28;4485181;31;20080;-72
2022/08/10 04:51:12;;;;;;;4.65;1.42;;;;;;;19.92;53.18;99371.84;4484794;32;20512;-72
2022/08/10 04:53:50;;;;;;;4.87;1.30;;;;;;;19.96;52.84;99375.81;4485214;31;20076;-72
2022/08/10 04:56:36;;;;;;;1.85;1.35;;;;;;;20.13;52.37;99375.63;4485163;31;20474;-72
2022/08/10 04:59:06;;;;;;;3.12;1.20;;;;;;;20.13;51.91;99378.28;4485054;31;20072;-72
2022/08/10 05:01:35;;;;;;;1.55;1.20;;;;;;;20.28;51.28;99373.78;4481789;32;20173;-72
2022/08/10 05:04:22;;;;;;;3.12;1.40;;;;;;;20.34;51.57;99380.19;4482735;31;20148;-72
2022/08/10 05:07:12;;;;;;;4.45;1.50;;;;;;;20.34;51.33;99382.88;4477814;31;20168;-72
2022/08/10 05:09:46;;;;;;;5.85;1.40;;;;;;;20.12;51.76;99382.78;4478471;31;20141;-72
2022/08/10 05:12:36;;;;;;;2.75;1.20;;;;;;;20.08;51.94;99386.00;4481925;32;20119;-72
2022/08/10 05:15:08;;;;;;;3.67;1.53;;;;;;;20.27;51.85;99377.44;4481417;32;20076;-72
2022/08/10 05:17:37;;;;;;;1.42;1.05;;;;;;;20.45;51.35;99384.22;4478561;31;20180;-72
2022/08/10 05:20:06;;;;;;;3.92;1.40;;;;;;;20.63;50.64;99387.31;4477357;32;20810;-72
2022/08/10 05:22:39;;;;;;;1.75;1.35;;;;;;;20.82;50.02;99380.59;4479087;32;20092;-72
2022/08/10 05:25:13;;;;;;;2.47;1.20;;;;;;;21.05;49.19;99375.06;4479803;32;20572;-72
2022/08/10 05:27:41;;;;;;;4.37;1.50;;;;;;;21.15;49.00;99381.94;4456935;31;20084;-72
2022/08/10 05:30:12;;;;;;;3.08;1.48;;;;;;;21.38;48.48;99371.91;4476245;32;20162;-72
2022/08/10 05:32:39;;;;;;;1.37;1.20;;;;;;;21.27;48.45;99370.56;4475850;31;20513;-71
2022/08/10 05:35:27;;;;;;;1.30;1.10;;;;;;;21.26;48.08;99368.91;4480178;32;20208;-72
2022/08/10 05:38:16;;;;;;;6.53;1.40;;;;;;;21.16;47.82;99379.06;4483884;32;20096;-72
2022/08/10 05:40:43;;;;;;;4.32;1.73;;;;;;;21.34;48.06;99381.28;4483041;32;20491;-72
2022/08/10 05:43:20;;;;;;;3.15;1.12;;;;;;;21.23;47.67;99377.28;4482719;32;20829;-72
2022/08/10 05:45:49;;;;;;;1.62;1.10;;;;;;;21.32;47.34;99387.81;4483380;32;20157;-72
2022/08/10 05:48:38;;;;;;;1.70;1.20;;;;;;;21.31;47.39;99376.34;4469993;32;20130;-72
2022/08/10 05:51:24;;;;;;;3.62;1.20;;;;;;;21.33;47.39;99373.47;4477071;32;20155;-71
2022/08/10 05:53:52;;;;;;;1.70;1.20;;;;;;;21.49;47.07;99375.06;4480946;32;20132;-72
2022/08/10 05:56:36;;;;;;;3.45;1.35;;;;;;;21.66;46.71;99376.44;4478576;32;20123;-72
2022/08/10 05:59:32;;;;;;;2.28;1.20;;;;;;;21.56;46.34;99370.59;4472200;32;20104;-72
2022/08/10 06:02:29;;;;;;;1.33;1.00;;;;;;;21.72;45.74;99367.66;4476495;32;20105;-72
2022/08/10 06:05:10;;;;;;;1.73;1.20;;;;;;;21.60;45.67;99380.72;4469564;32;20450;-72
2022/08/10 06:07:43;;;;;;;3.10;1.35;;;;;;;21.66;45.82;99373.75;4468425;32;20084;-72
2022/08/10 06:10:13;;;;;;;2.72;1.25;;;;;;;21.67;45.55;99372.75;4480531;32;20451;-72
2022/08/10 06:15:54;;;;;;;8.25;1.25;;;;;;;21.79;45.10;99367.72;4477290;32;20564;-72
2022/08/10 06:18:22;;;;;;;2.78;1.20;;;;;;;21.93;44.48;99371.28;4468813;32;20101;-72
2022/08/10 06:20:51;;;;;;;2.28;1.08;;;;;;;21.83;44.71;99373.47;4479683;32;20170;-72
2022/08/10 06:23:18;;;;;;;2.05;1.00;;;;;;;21.93;45.08;99373.94;4479184;32;20153;-72
2022/08/10 06:25:45;;;;;;;7.22;1.20;;;;;;;22.04;44.46;99373.38;4474468;32;20390;-72
2022/08/10 06:28:37;;;;;;;2.62;1.10;;;;;;;22.23;44.31;99369.19;4483890;31;20497;-72
2022/08/10 06:31:05;;;;;;;3.08;1.37;;;;;;;22.33;43.84;99374.16;4482605;32;20249;-72
2022/08/10 06:33:34;;;;;;;2.80;1.12;;;;;;;22.43;43.46;99374.63;4480050;32;20097;-72
2022/08/10 06:36:03;;;;;;;2.12;1.10;;;;;;;22.45;43.30;99372.59;4478430;32;20108;-72
2022/08/10 06:38:31;;;;;;;3.30;1.25;;;;;;;22.37;43.84;99374.63;4482113;31;20100;-72
2022/08/10 06:41:03;;;;;;;1.52;1.10;;;;;;;22.42;43.13;99372.16;4482716;32;20157;-72
2022/08/10 06:43:32;;;;;;;1.40;1.17;;;;;;;22.48;43.20;99372.19;4478401;31;20108;-72
2022/08/10 06:46:00;;;;;;;2.50;1.05;;;;;;;22.52;42.67;99371.81;4497170;31;20104;-72
2022/08/10 06:48:37;;;;;;;13.40;1.52;;;;;;;22.48;43.52;99377.53;4482317;32;20507;-72
2022/08/10 06:51:37;;;;;;;2.65;1.30;;;;;;;22.37;43.45;99372.75;4493126;31;20095;-72
2022/08/10 06:54:06;;;;;;;1.65;1.10;;;;;;;22.58;43.57;99365.66;4480790;32;20107;-72
2022/08/10 06:56:39;;;;;;;4.72;1.45;;;;;;;22.54;43.73;99370.56;4473052;32;20472;-72
2022/08/10 06:59:26;;;;;;;4.47;1.37;;;;;;;22.51;43.47;99373.63;4468580;32;20492;-72
2022/08/10 07:01:59;;;;;;;2.22;1.15;;;;;;;22.68;43.89;99366.09;4476936;32;20129;-72
2022/08/10 07:04:34;;;;;;;1.98;1.20;;;;;;;22.60;43.04;99352.91;4477352;32;20481;-72
2022/08/10 07:07:03;;;;;;;3.55;1.30;;;;;;;22.91;42.84;99364.91;4478256;32;20470;-72
2022/08/10 07:09:35;;;;;;;1.98;1.15;;;;;;;22.96;42.27;99370.47;4480502;32;20666;-72
2022/08/10 07:12:06;;;;;;;6.57;1.58;;;;;;;23.14;42.31;99365.38;4478710;32;20458;-72
2022/08/10 07:14:38;;;;;;;5.97;1.30;;;;;;;23.20;41.88;99369.91;4473867;32;20532;-72
2022/08/10 07:17:09;;;;;;;3.05;1.50;;;;;;;23.21;42.18;99376.91;4470571;32;20100;-72
2022/08/10 07:19:45;;;;;;;10.23;1.23;;;;;;;23.08;42.39;99363.50;4488404;31;20172;-72
2022/08/10 07:22:20;;;;;;;3.53;1.40;;;;;;;23.07;42.64;99369.03;4478796;32;20087;-72
2022/08/10 07:25:08;;;;;;;2.47;1.20;;;;;;;23.31;42.30;99354.28;4479295;32;20351;-72
2022/08/10 07:27:38;;;;;;;4.30;1.40;;;;;;;23.22;42.18;99361.69;4480353;32;20568;-72
2022/08/10 07:30:29;;;;;;;2.12;1.17;;;;;;;23.36;42.18;99365.19;4476302;32;20557;-72
2022/08/10 07:32:58;;;;;;;3.92;1.20;;;;;;;23.38;41.63;99360.47;4474706;32;20087;-72
2022/08/10 07:35:26;;;;;;;2.37;1.20;;;;;;;23.35;41.63;99353.66;4475299;32;20150;-72
2022/08/10 07:37:57;;;;;;;4.90;1.17;;;;;;;23.41;41.80;99365.41;4478616;32;20134;-72
2022/08/10 07:40:24;;;;;;;1.83;1.20;;;;;;;23.34;41.49;99359.22;4480092;32;20105;-72
2022/08/10 07:42:55;;;;;;;3.40;1.20;;;;;;;23.47;41.40;99364.56;4484159;32;20108;-72
2022/08/10 07:45:27;;;;;;;5.32;1.10;;;;;;;23.41;41.68;99360.06;4481469;31;20081;-72
2022/08/10 07:48:16;;;;;;;6.87;1.90;;;;;;;23.48;40.95;99360.87;4481029;32;20472;-72
2022/08/10 07:50:45;;;;;;;4.57;1.35;;;;;;;23.59;40.30;99361.25;4476948;32;20131;-71
2022/08/10 07:53:18;;;;;;;2.42;1.58;;;;;;;23.54;41.01;99354.69;4477974;32;20104;-72
2022/08/10 07:55:46;;;;;;;2.40;1.40;;;;;;;23.54;40.71;99365.41;4474469;32;20084;-72
2022/08/10 07:58:53;;;;;;;2.42;1.00;;;;;;;23.55;40.42;99355.50;4472339;32;20173;-71
2022/08/10 08:01:27;;;;;;;3.75;1.48;;;;;;;23.46;40.72;99368.25;4473117;32;20097;-72
2022/08/10 08:03:55;;;;;;;4.78;1.42;;;;;;;23.51;41.18;99379.19;4480346;32;20135;-72
2022/08/10 08:06:40;;;;;;;3.72;1.23;;;;;;;23.54;41.11;99370.75;4481864;32;20083;-72
2022/08/10 08:09:08;;;;;;;2.12;1.37;;;;;;;23.66;40.44;99373.59;4476976;32;20162;-72
2022/08/10 08:11:37;;;;;;;2.28;1.73;;;;;;;23.89;39.69;99372.34;4479986;32;20123;-72
2022/08/10 08:14:06;;;;;;;3.67;0.98;;;;;;;23.85;39.38;99369.28;4481905;32;20100;-72
2022/08/10 08:16:45;;;;;;;10.77;1.50;;;;;;;24.04;39.08;99369.44;4479971;32;20156;-72
2022/08/10 08:19:13;;;;;;;3.65;1.10;;;;;;;24.33;39.21;99378.84;4473480;32;20146;-72
2022/08/10 08:22:01;;;;;;;7.55;1.20;;;;;;;24.35;38.73;99371.41;4477205;32;20080;-72
2022/08/10 08:24:49;;;;;;;2.83;1.10;;;;;;;24.52;39.43;99369.06;4477967;32;20127;-72
2022/08/10 08:27:19;;;;;;;7.07;1.23;;;;;;;24.36;38.59;99372.22;4477853;32;20104;-72
2022/08/10 08:29:48;;;;;;;2.80;1.00;;;;;;;24.38;38.54;99378.19;4474087;32;20503;-72
2022/08/10 08:32:19;;;;;;;1.45;0.80;;;;;;;24.85;38.05;99370.78;4482477;32;20096;-72
2022/08/10 08:34:48;;;;;;;4.35;1.25;;;;;;;24.96;36.48;99364.69;4483710;32;20527;-72
2022/08/10 08:37:18;;;;;;;12.73;1.33;;;;;;;24.84;37.62;99358.41;4477696;31;20422;-71
2022/08/10 08:40:09;;;;;;;1.55;1.00;;;;;;;25.02;37.47;99360.34;4478317;32;20591;-72
2022/08/10 08:42:55;;;;;;;1.85;1.20;;;;;;;24.94;36.04;99355.25;4480859;32;20253;-72
2022/08/10 08:45:36;;;;;;;2.12;1.08;;;;;;;25.01;36.10;99355.19;4473163;32;20088;-72
2022/08/10 08:48:35;;;;;;;2.53;1.02;;;;;;;24.98;37.00;99361.81;4491893;31;20091;-72
2022/08/10 08:51:27;;;;;;;2.45;1.10;;;;;;;25.17;36.25;99351.19;4473656;32;20169;-72
2022/08/10 08:54:45;;;;;;;2.12;1.20;;;;;;;25.24;35.60;99347.41;4478624;32;20096;-72
2022/08/10 08:57:31;;;;;;;4.18;0.95;;;;;;;25.50;35.45;99354.41;4479430;32;20179;-72
2022/08/10 09:00:40;;;;;;;3.63;1.20;;;;;;;25.35;35.65;99345.91;4481396;32;20140;-72
2022/08/10 09:03:35;;;;;;;8.52;1.90;;;;;;;25.32;35.55;99360.56;4476108;32;20179;-72
2022/08/10 09:06:23;;;;;;;4.22;1.10;;;;;;;25.44;35.34;99347.25;4478260;31;20235;-72
2022/08/10 09:09:14;;;;;;;3.58;1.20;;;;;;;25.34;34.77;99349.59;4480123;32;20508;-72
2022/08/10 09:12:04;;;;;;;2.47;1.35;;;;;;;25.20;34.79;99356.09;4481267;32;20159;-72
2022/08/10 09:14:32;;;;;;;2.28;1.15;;;;;;;25.46;35.31;99344.34;4480507;32;20193;-72
2022/08/10 09:17:09;;;;;;;1.12;1.02;;;;;;;25.25;35.15;99354.38;4469831;32;233743;-72
2022/08/10 09:19:42;;;;;;;2.35;1.10;;;;;;;25.28;35.33;99348.59;4478516;32;20093;-72
2022/08/10 09:22:28;;;;;;;1.90;1.10;;;;;;;25.30;34.96;99349.25;4475716;32;20096;-72
2022/08/10 09:25:05;;;;;;;1.30;0.90;;;;;;;25.49;34.77;99346.59;4477154;32;20135;-72
2022/08/10 09:28:00;;;;;;;3.00;1.17;;;;;;;25.55;35.15;99342.22;4477322;32;20126;-72
2022/08/10 09:30:31;;;;;;;4.07;1.17;;;;;;;25.61;34.41;99338.66;4469918;32;20100;-72
2022/08/10 09:33:12;;;;;;;1.25;1.10;;;;;;;25.57;33.57;99346.31;4472329;32;20092;-72
2022/08/10 09:36:06;;;;;;;4.80;1.00;;;;;;;25.61;34.89;99352.87;4464188;32;20131;-72
2022/08/10 09:39:14;;;;;;;2.20;1.20;;;;;;;25.74;33.15;99345.72;4473554;32;20163;-72
2022/08/10 09:42:17;;;;;;;0.85;0.73;;;;;;;25.96;33.85;99338.87;4482330;31;22256;-72
2022/08/10 09:44:52;;;;;;;3.40;1.15;;;;;;;26.07;31.76;99345.37;4476486;32;20088;-73
2022/08/10 09:47:55;;;;;;;5.87;1.10;;;;;;;25.92;33.17;99335.03;4462672;32;21310;-73
2022/08/10 09:50:54;;;;;;;2.55;1.00;;;;;;;26.04;33.52;99340.47;4480568;32;20471;-71
2022/08/10 09:53:47;;;;;;;5.25;0.90;;;;;;;25.65;33.78;99342.53;4478536;32;20111;-71
2022/08/10 09:56:45;;;;;;;4.47;1.02;;;;;;;25.89;33.04;99342.69;4482572;31;20138;-71
2022/08/10 09:59:22;;;;;;;2.55;0.93;;;;;;;25.86;33.00;99335.91;4471071;32;20484;-71
2022/08/10 10:02:35;;;;;;;2.75;1.10;;;;;;;26.01;33.43;99336.38;4473320;32;20105;-71
2022/08/10 10:05:24;;;;;;;4.62;0.93;;;;;;;26.07;32.84;99325.78;4478659;32;20092;-71
2022/08/10 10:08:11;;;;;;;2.92;1.20;;;;;;;26.47;33.18;99327.97;4477454;32;20092;-71
2022/08/10 10:11:03;;;;;;;1.92;0.95;;;;;;;26.82;32.10;99330.81;4483989;32;20528;-71
2022/08/10 10:13:38;;;;;;;1.00;0.90;;;;;;;26.39;31.28;99321.06;4477469;32;20105;-71
2022/08/10 10:17:11;;;;;;;2.35;1.10;;;;;;;26.36;31.54;99327.69;4476551;32;20104;-71
2022/08/10 10:19:44;;;;;;;4.05;0.95;;;;;;;26.81;31.48;99320.28;4419247;32;20089;-72
2022/08/10 10:22:32;;;;;;;;;;;;;;;26.76;31.92;99312.09;4434231;32;20105;-74
2022/08/10 10:25:03;;;;;;;20.08;2.95;;;;;;;26.70;31.90;99311.12;4384710;32;20013;-75
2022/08/10 10:28:06;;;;;;;1.73;1.10;;;;;;;26.68;31.57;99313.25;4375427;32;20125;-74
2022/08/10 10:30:41;;;;;;;2.08;0.73;;;;;;;26.68;31.82;99302.50;4383517;32;20169;-74
2022/08/10 10:33:13;;;;;;;0.90;0.60;;;;;;;26.73;29.98;99300.75;4369865;32;20128;-75
2022/08/10 10:35:51;;;;;;;1.65;1.00;;;;;;;26.75;29.00;99303.19;4387384;32;20185;-73
2022/08/10 10:38:21;;;;;;;0.80;0.70;;;;;;;26.87;29.87;99295.16;4373642;32;20125;-74
2022/08/10 10:40:54;;;;;;;2.67;0.70;;;;;;;27.02;30.10;99305.47;4374658;32;20685;-74
2022/08/10 10:44:04;;;;;;;2.75;1.20;;;;;;;26.68;30.97;99289.88;4374316;32;20106;-75
2022/08/10 10:46:55;;;;;;;4.35;1.05;;;;;;;26.82;31.78;99292.34;4371573;32;20551;-73
2022/08/10 10:49:48;;;;;;;4.30;0.95;;;;;;;27.37;30.50;99283.19;4380041;32;20122;-75
2022/08/10 10:52:19;;;;;;;1.60;1.00;;;;;;;26.97;29.87;99290.03;4426983;32;20456;-75
2022/08/10 10:55:09;;;;;;;1.25;1.00;;;;;;;27.15;29.79;99288.31;4430593;32;20125;-76
2022/08/10 10:57:44;;;;;;;12.18;1.23;;;;;;;26.94;29.65;99287.81;4423845;32;20096;-74
2022/08/10 11:00:34;;;;;;;1.35;0.90;;;;;;;27.28;30.51;99285.37;4425559;32;20116;-74
2022/08/10 11:03:16;;;;;;;3.22;0.80;;;;;;;27.47;29.96;99283.41;4469173;32;20084;-74
2022/08/10 11:06:18;;;;;;;5.07;1.10;;;;;;;27.53;29.38;99289.75;4479583;32;20104;-73
2022/08/10 11:08:52;;;;;;;2.25;0.90;;;;;;;26.45;30.28;99281.69;4484804;32;20457;-73
2022/08/10 11:11:24;;;;;;;3.92;1.02;;;;;;;26.48;29.72;99275.88;4482185;32;20110;-73
2022/08/10 11:14:28;;;;;;;1.62;0.80;;;;;;;26.95;29.97;99286.78;4480920;31;20725;-75
2022/08/10 11:17:25;;;;;;;2.33;0.95;;;;;;;26.98;29.15;99280.94;4476284;32;20116;-73
2022/08/10 11:20:14;;;;;;;2.85;1.00;;;;;;;26.73;28.75;99273.84;4447249;32;20117;-71
2022/08/10 11:22:57;;;;;;;4.43;1.17;;;;;;;27.04;29.91;99273.78;4410961;32;20155;-74
2022/08/10 11:25:28;;;;;;;3.55;0.82;;;;;;;27.03;30.14;99275.66;4421289;32;20160;-74
2022/08/10 11:28:09;;;;;;;1.20;1.05;;;;;;;26.80;30.43;99283.69;4421295;32;20502;-74
2022/08/10 11:30:46;;;;;;;4.32;1.00;;;;;;;27.19;29.67;99263.41;4421256;32;20144;-72
2022/08/10 11:33:41;;;;;;;1.12;0.80;;;;;;;27.84;30.32;99261.56;4421035;32;20119;-73
2022/08/10 11:36:40;;;;;;;3.22;0.90;;;;;;;27.74;27.85;99261.37;4422029;32;20124;-74
2022/08/10 11:39:27;;;;;;;1.05;0.75;;;;;;;27.54;27.43;99281.44;4423931;32;20651;-73
2022/08/10 11:41:59;;;;;;;1.00;0.68;;;;;;;27.72;27.75;99268.87;4436667;32;20089;-73
2022/08/10 11:44:53;;;;;;;2.80;1.00;;;;;;;27.33;29.05;99272.09;4436538;32;20123;-73
2022/08/10 11:47:33;;;;;;;1.67;0.90;;;;;;;26.56;30.61;99262.13;4424073;32;20423;-74
2022/08/10 11:50:42;;;;;;;4.75;0.90;;;;;;;27.27;30.60;99262.22;4423711;32;20490;-73
2022/08/10 11:53:22;;;;;;;1.05;0.95;;;;;;;27.84;29.11;99271.53;4430959;32;20517;-73
2022/08/10 11:56:00;;;;;;;1.55;0.93;;;;;;;27.71;28.66;99269.94;4442450;32;20089;-74
2022/08/10 12:01:30;;;;;;;1.60;0.68;;;;;;;27.63;27.21;99252.25;4485572;31;20088;-73
2022/08/10 12:04:06;;;;;;;2.90;0.80;;;;;;;28.29;26.82;99257.34;4484254;32;20104;-74
2022/08/10 12:06:39;;;;;;;7.20;0.80;;;;;;;28.51;26.00;99257.50;4473303;32;20096;-73
2022/08/10 12:09:24;;;;;;;1.60;0.82;;;;;;;28.66;26.60;99254.25;4468713;32;20072;-74
2022/08/10 12:12:11;;;;;;;1.10;0.90;;;;;;;29.27;25.58;99240.13;4469866;32;20560;-74
2022/08/10 12:14:47;;;;;;;3.25;0.90;;;;;;;28.43;25.57;99247.09;4468337;32;20156;-74
2022/08/10 12:17:18;;;;;;;1.37;0.90;;;;;;;28.22;25.59;99251.28;4469661;32;20144;-74
2022/08/10 12:19:57;;;;;;;1.87;1.00;;;;;;;28.01;26.18;99252.78;4468479;32;20115;-74
2022/08/10 12:22:55;;;;;;;2.10;1.02;;;;;;;27.74;26.46;99253.31;4469810;32;20176;-74
2022/08/10 12:25:43;;;;;;;2.80;0.95;;;;;;;27.86;26.70;99247.88;4469705;32;20110;-74
2022/08/10 12:28:37;;;;;;;2.30;0.88;;;;;;;28.35;25.82;99248.31;4468577;32;20123;-74
2022/08/10 12:31:22;;;;;;;2.25;0.85;;;;;;;28.56;25.71;99233.31;4468583;32;20076;-74
2022/08/10 12:33:59;;;;;;;2.03;0.90;;;;;;;29.09;25.09;99236.59;4468416;32;20454;-75
2022/08/10 12:36:40;;;;;;;3.45;0.73;;;;;;;29.40;24.26;99223.53;4471085;32;20127;-75